Time,TemperatureF,DewpointF,PressureIn,WindDirection,WindDirectionDegrees,WindSpeedMPH,WindSpeedGustMPH,Humidity,HourlyPrecipIn,Conditions,Clouds,dailyrainin,SolarRadiationWatts/m^2,SoftwareType,DateUTC
2013-08-01 00:01:00,77.4,73.2,30.06,NNW,345,0.0,12.0,87,0.00,,,0.36,0,Wunderground v.1.15,2013-08-01 04:01:00,
2013-08-01 00:02:00,77.4,73.2,30.06,NNW,345,0.0,12.0,87,0.00,,,0.36,0,Wunderground v.1.15,2013-08-01 04:02:00,
2013-08-01 00:03:00,77.3,73.1,30.06,NNW,345,0.0,12.0,87,0.00,,,0.36,0,Wunderground v.1.15,2013-08-01 04:03:00,
2013-08-01 00:09:00,77.1,73.3,30.06,NNW,345,0.0,12.0,88,0.00,,,0.36,0,Wunderground v.1.15,2013-08-01 04:09:00,
2013-08-01 00:14:00,77.0,73.5,30.05,NNW,345,0.0,12.0,89,0.00,,,0.36,0,Wunderground v.1.15,2013-08-01 04:14:00,
2013-08-01 00:15:00,77.0,73.5,30.05,NNW,345,0.0,12.0,89,0.00,,,0.36,0,Wunderground v.1.15,2013-08-01 04:15:00,
2013-08-01 00:20:00,76.9,73.7,30.06,NNW,346,0.0,12.0,90,0.00,,,0.37,0,Wunderground v.1.15,2013-08-01 04:20:00,
2013-08-01 00:26:00,76.9,74.1,30.05,NNW,346,0.0,12.0,91,0.00,,,0.37,0,Wunderground v.1.15,2013-08-01 04:26:00,
2013-08-01 00:31:00,76.8,74.0,30.05,NNW,346,0.0,12.0,91,0.00,,,0.37,0,Wunderground v.1.15,2013-08-01 04:31:00,
2013-08-01 00:38:00,76.7,73.9,30.05,NNW,347,0.0,12.0,91,0.00,,,0.00,0,Wunderground v.1.15,2013-08-01 04:38:00,
2013-08-01 00:43:00,76.7,74.2,30.04,NNW,347,0.0,12.0,92,0.00,,,0.00,0,Wunderground v.1.15,2013-08-01 04:43:00,
2013-08-01 00:48:00,76.6,74.1,30.04,NNW,348,0.0,12.0,92,0.00,,,0.00,0,Wunderground v.1.15,2013-08-01 04:48:00,
2013-08-01 00:54:00,76.5,74.0,30.03,North,349,0.0,12.0,92,0.00,,,0.00,0,Wunderground v.1.15,2013-08-01 04:54:00,
2013-08-01 00:59:00,76.3,73.8,30.03,North,349,0.0,12.0,92,0.00,,,0.01,0,Wunderground v.1.15,2013-08-01 04:59:00,
2013-08-01 01:04:00,76.2,73.7,30.03,North,349,0.0,12.0,92,0.00,,,0.01,0,Wunderground v.1.15,2013-08-01 05:04:00,
2013-08-01 01:10:00,76.1,73.9,30.02,North,350,1.0,1.0,93,0.00,,,0.01,0,Wunderground v.1.15,2013-08-01 05:10:00,
2013-08-01 01:15:00,76.2,74.0,30.02,North,350,1.0,12.0,93,0.00,,,0.01,0,Wunderground v.1.15,2013-08-01 05:15:00,
2013-08-01 01:21:00,76.1,73.9,30.01,North,350,1.0,12.0,93,0.00,,,0.01,0,Wunderground v.1.15,2013-08-01 05:21:00,
2013-08-01 01:26:00,76.1,73.9,30.02,North,349,0.0,12.0,93,0.00,,,0.01,0,Wunderground v.1.15,2013-08-01 05:26:00,
2013-08-01 01:32:00,76.0,73.8,30.01,North,349,1.0,12.0,93,0.00,,,0.01,0,Wunderground v.1.15,2013-08-01 05:32:00,
2013-08-01 01:37:00,76.0,74.1,30.02,North,349,2.0,12.0,94,0.00,,,0.01,0,Wunderground v.1.15,2013-08-01 05:37:00,
2013-08-01 01:42:00,76.0,74.1,30.01,North,349,4.0,12.0,94,0.00,,,0.01,0,Wunderground v.1.15,2013-08-01 05:42:00,
2013-08-01 01:47:00,76.1,74.2,30.01,North,349,3.0,12.0,94,0.00,,,0.01,0,Wunderground v.1.15,2013-08-01 05:47:00,
2013-08-01 01:53:00,76.0,74.1,30.01,North,349,2.0,12.0,94,0.00,,,0.01,0,Wunderground v.1.15,2013-08-01 05:53:00,
2013-08-01 01:58:00,76.0,74.1,30.01,North,349,1.0,12.0,94,0.00,,,0.01,0,Wunderground v.1.15,2013-08-01 05:58:00,
2013-08-01 02:04:00,76.1,74.2,30.00,NE,50,4.0,12.0,94,0.00,,,0.01,0,Wunderground v.1.15,2013-08-01 06:04:00,
2013-08-01 02:10:00,75.9,74.0,30.00,NE,50,4.0,4.0,94,0.00,,,0.02,0,Wunderground v.1.15,2013-08-01 06:10:00,
2013-08-01 02:15:00,75.8,73.9,30.00,NE,52,4.0,12.0,94,0.00,,,0.02,0,Wunderground v.1.15,2013-08-01 06:15:00,
2013-08-01 02:20:00,75.8,73.9,30.00,ENE,57,4.0,4.0,94,0.00,,,0.02,0,Wunderground v.1.15,2013-08-01 06:20:00,
2013-08-01 02:26:00,75.9,74.0,30.00,ENE,58,3.0,12.0,94,0.00,,,0.02,0,Wunderground v.1.15,2013-08-01 06:26:00,
2013-08-01 02:32:00,75.9,74.0,30.00,ENE,59,1.0,12.0,94,0.00,,,0.02,0,Wunderground v.1.15,2013-08-01 06:32:00,
2013-08-01 02:37:00,75.9,74.0,30.00,ENE,59,0.0,12.0,94,0.00,,,0.02,0,Wunderground v.1.15,2013-08-01 06:37:00,
2013-08-01 02:43:00,76.0,74.1,29.99,ENE,67,2.0,12.0,94,0.00,,,0.02,0,Wunderground v.1.15,2013-08-01 06:43:00,
2013-08-01 02:48:00,76.0,74.1,29.99,ENE,67,2.0,12.0,94,0.00,,,0.02,0,Wunderground v.1.15,2013-08-01 06:48:00,
2013-08-01 02:54:00,76.1,74.2,29.99,ENE,67,2.0,12.0,94,0.00,,,0.02,0,Wunderground v.1.15,2013-08-01 06:54:00,
2013-08-01 02:59:00,76.2,74.3,29.99,ENE,67,2.0,12.0,94,0.00,,,0.02,0,Wunderground v.1.15,2013-08-01 06:59:00,
2013-08-01 03:04:00,76.2,74.3,29.98,ENE,67,3.0,12.0,94,0.00,,,0.02,0,Wunderground v.1.15,2013-08-01 07:04:00,
2013-08-01 03:10:00,76.3,74.4,29.98,East,79,4.0,12.0,94,0.00,,,0.02,0,Wunderground v.1.15,2013-08-01 07:10:00,
2013-08-01 03:15:00,76.3,74.4,29.98,East,93,4.0,12.0,94,0.00,,,0.02,0,Wunderground v.1.15,2013-08-01 07:15:00,
2013-08-01 03:20:00,76.3,74.1,29.98,East,95,4.0,4.0,93,0.00,,,0.02,0,Wunderground v.1.15,2013-08-01 07:20:00,
2013-08-01 03:26:00,76.4,74.2,29.98,ESE,107,4.0,12.0,93,0.00,,,0.02,0,Wunderground v.1.15,2013-08-01 07:26:00,
2013-08-01 03:31:00,76.4,74.2,29.98,ESE,115,4.0,12.0,93,0.00,,,0.02,0,Wunderground v.1.15,2013-08-01 07:31:00,
2013-08-01 03:37:00,76.4,74.5,29.98,SE,128,4.0,12.0,94,0.00,,,0.02,0,Wunderground v.1.15,2013-08-01 07:37:00,
2013-08-01 03:42:00,76.5,74.6,29.98,SSE,158,4.0,12.0,94,0.00,,,0.02,0,Wunderground v.1.15,2013-08-01 07:42:00,
2013-08-01 03:47:00,76.6,74.7,29.97,SSE,160,4.0,12.0,94,0.00,,,0.02,0,Wunderground v.1.15,2013-08-01 07:47:00,
2013-08-01 03:53:00,77.5,76.0,29.97,South,170,5.0,12.0,95,0.00,,,0.02,0,Wunderground v.1.15,2013-08-01 07:53:00,
2013-08-01 03:58:00,78.2,76.6,29.97,South,171,7.0,12.0,95,0.00,,,0.02,0,Wunderground v.1.15,2013-08-01 07:58:00,
2013-08-01 04:04:00,78.5,76.6,29.97,South,177,6.0,12.0,94,0.00,,,0.02,0,Wunderground v.1.15,2013-08-01 08:04:00,
2013-08-01 04:12:00,78.8,76.6,29.97,South,177,6.0,12.0,93,0.00,,,0.02,0,Wunderground v.1.15,2013-08-01 08:12:00,
2013-08-01 04:17:00,78.8,76.6,29.97,South,179,6.0,12.0,93,0.00,,,0.02,0,Wunderground v.1.15,2013-08-01 08:17:00,
2013-08-01 04:23:00,78.8,76.3,29.97,South,181,6.0,12.0,92,0.00,,,0.02,0,Wunderground v.1.15,2013-08-01 08:23:00,
2013-08-01 04:28:00,78.9,76.7,29.97,South,182,5.0,12.0,93,0.00,,,0.02,0,Wunderground v.1.15,2013-08-01 08:28:00,
2013-08-01 04:34:00,78.8,76.6,29.97,South,189,5.0,12.0,93,0.00,,,0.02,0,Wunderground v.1.15,2013-08-01 08:34:00,
2013-08-01 04:39:00,78.7,76.2,29.97,South,188,6.0,12.0,92,0.00,,,0.02,0,Wunderground v.1.15,2013-08-01 08:39:00,
2013-08-01 04:45:00,78.8,76.6,29.97,South,188,5.0,12.0,93,0.00,,,0.02,0,Wunderground v.1.15,2013-08-01 08:45:00,
2013-08-01 04:53:00,78.8,76.6,29.97,South,188,5.0,12.0,93,0.00,,,0.02,0,Wunderground v.1.15,2013-08-01 08:53:00,
2013-08-01 05:02:00,78.7,76.5,29.97,South,188,5.0,12.0,93,0.00,,,0.02,0,Wunderground v.1.15,2013-08-01 09:02:00,
2013-08-01 05:08:00,78.5,76.3,29.97,South,188,5.0,12.0,93,0.00,,,0.02,0,Wunderground v.1.15,2013-08-01 09:08:00,
2013-08-01 05:14:00,78.4,76.2,29.97,South,188,4.0,12.0,93,0.00,,,0.02,0,Wunderground v.1.15,2013-08-01 09:14:00,
2013-08-01 05:20:00,78.4,76.2,29.97,South,188,3.0,12.0,93,0.00,,,0.02,0,Wunderground v.1.15,2013-08-01 09:20:00,
2013-08-01 05:25:00,78.5,76.6,29.97,South,190,3.0,12.0,94,0.00,,,0.02,0,Wunderground v.1.15,2013-08-01 09:25:00,
2013-08-01 05:30:00,78.6,76.7,29.97,South,190,3.0,12.0,94,0.00,,,0.02,0,Wunderground v.1.15,2013-08-01 09:30:00,
2013-08-01 05:35:00,78.7,76.8,29.97,South,190,3.0,12.0,94,0.00,,,0.02,0,Wunderground v.1.15,2013-08-01 09:35:00,
2013-08-01 05:41:00,78.6,76.7,29.97,South,190,3.0,12.0,94,0.00,,,0.02,0,Wunderground v.1.15,2013-08-01 09:41:00,
2013-08-01 05:46:00,78.6,76.7,29.97,South,190,2.0,12.0,94,0.00,,,0.02,0,Wunderground v.1.15,2013-08-01 09:46:00,
2013-08-01 05:52:00,78.8,76.9,29.98,South,190,2.0,12.0,94,0.00,,,0.02,0,Wunderground v.1.15,2013-08-01 09:52:00,
2013-08-01 05:59:00,78.7,76.8,29.98,South,190,3.0,12.0,94,0.00,,,0.02,0,Wunderground v.1.15,2013-08-01 09:59:00,
2013-08-01 06:07:00,78.6,76.4,29.98,South,190,3.0,12.0,93,0.00,,,0.02,0,Wunderground v.1.15,2013-08-01 10:07:00,
2013-08-01 06:12:00,78.5,76.6,29.98,South,190,4.0,12.0,94,0.00,,,0.02,0,Wunderground v.1.15,2013-08-01 10:12:00,
2013-08-01 06:18:00,78.4,76.5,29.98,South,190,4.0,12.0,94,0.00,,,0.02,0,Wunderground v.1.15,2013-08-01 10:18:00,
2013-08-01 06:23:00,77.9,75.7,29.98,South,189,2.0,12.0,93,0.00,,,0.02,0,Wunderground v.1.15,2013-08-01 10:23:00,
2013-08-01 06:29:00,77.3,75.1,29.99,South,189,2.0,12.0,93,0.00,,,0.02,0,Wunderground v.1.15,2013-08-01 10:29:00,
2013-08-01 06:34:00,77.0,74.8,29.99,South,190,2.0,12.0,93,0.00,,,0.02,0,Wunderground v.1.15,2013-08-01 10:34:00,
2013-08-01 06:41:00,76.8,74.9,29.99,South,190,2.0,12.0,94,0.00,,,0.02,0,Wunderground v.1.15,2013-08-01 10:41:00,
2013-08-01 06:47:00,76.7,74.8,29.99,South,190,2.0,12.0,94,0.00,,,0.02,0,Wunderground v.1.15,2013-08-01 10:47:00,
2013-08-01 06:53:00,76.7,74.8,29.99,South,190,1.0,12.0,94,0.00,,,0.02,0,Wunderground v.1.15,2013-08-01 10:53:00,
2013-08-01 06:58:00,76.7,75.2,29.99,South,189,0.0,12.0,95,0.00,,,0.02,7,Wunderground v.1.15,2013-08-01 10:58:00,
2013-08-01 07:04:00,76.8,75.3,29.99,South,189,0.0,12.0,95,0.00,,,0.02,14,Wunderground v.1.15,2013-08-01 11:04:00,
2013-08-01 07:09:00,76.8,75.3,29.99,South,189,0.0,12.0,95,0.00,,,0.02,18,Wunderground v.1.15,2013-08-01 11:09:00,
2013-08-01 07:15:00,76.9,75.4,29.99,South,190,1.0,12.0,95,0.00,,,0.02,25,Wunderground v.1.15,2013-08-01 11:15:00,
2013-08-01 07:21:00,76.9,75.4,29.99,South,189,1.0,2.0,95,0.00,,,0.02,30,Wunderground v.1.15,2013-08-01 11:21:00,
2013-08-01 07:27:00,77.0,75.5,30.00,South,188,1.0,12.0,95,0.00,,,0.02,33,Wunderground v.1.15,2013-08-01 11:27:00,
2013-08-01 07:33:00,77.1,75.6,29.99,South,184,1.0,12.0,95,0.00,,,0.02,42,Wunderground v.1.15,2013-08-01 11:33:00,
2013-08-01 07:39:00,77.2,75.7,30.00,South,184,1.0,12.0,95,0.00,,,0.02,53,Wunderground v.1.15,2013-08-01 11:39:00,
2013-08-01 07:44:00,77.3,75.8,30.00,South,184,1.0,12.0,95,0.00,,,0.02,70,Wunderground v.1.15,2013-08-01 11:44:00,
2013-08-01 07:50:00,77.5,76.0,30.00,South,184,1.0,12.0,95,0.00,,,0.02,84,Wunderground v.1.15,2013-08-01 11:50:00,
2013-08-01 07:57:00,77.6,76.1,30.00,South,184,1.0,12.0,95,0.00,,,0.02,102,Wunderground v.1.15,2013-08-01 11:57:00,
2013-08-01 08:04:00,77.8,76.3,30.00,South,184,1.0,12.0,95,0.00,,,0.02,132,Wunderground v.1.15,2013-08-01 12:04:00,
2013-08-01 08:09:00,78.1,76.6,30.01,South,183,0.0,12.0,95,0.00,,,0.02,179,Wunderground v.1.15,2013-08-01 12:09:00,
2013-08-01 08:15:00,78.4,76.8,30.01,South,183,0.0,12.0,95,0.00,,,0.02,199,Wunderground v.1.15,2013-08-01 12:15:00,
2013-08-01 08:20:00,78.8,76.9,30.01,South,183,0.0,12.0,94,0.00,,,0.02,279,Wunderground v.1.15,2013-08-01 12:20:00,
2013-08-01 08:25:00,79.3,77.1,30.01,South,183,1.0,12.0,93,0.00,,,0.02,352,Wunderground v.1.15,2013-08-01 12:25:00,
2013-08-01 08:33:00,79.9,77.4,30.01,South,183,1.0,12.0,92,0.00,,,0.02,174,Wunderground v.1.15,2013-08-01 12:33:00,
2013-08-01 08:38:00,80.2,77.3,30.01,South,183,0.0,12.0,91,0.00,,,0.02,171,Wunderground v.1.15,2013-08-01 12:38:00,
2013-08-01 08:44:00,80.4,77.5,30.01,South,183,0.0,12.0,91,0.00,,,0.02,176,Wunderground v.1.15,2013-08-01 12:44:00,
2013-08-01 08:49:00,80.5,77.3,30.01,South,183,2.0,12.0,90,0.00,,,0.02,211,Wunderground v.1.15,2013-08-01 12:49:00,
2013-08-01 08:56:00,80.7,76.8,30.01,South,183,5.0,12.0,88,0.00,,,0.02,221,Wunderground v.1.15,2013-08-01 12:56:00,
2013-08-01 09:01:00,81.0,77.1,30.01,South,183,5.0,12.0,88,0.00,,,0.02,234,Wunderground v.1.15,2013-08-01 13:01:00,
2013-08-01 09:07:00,81.2,77.3,30.01,South,174,5.0,12.0,88,0.00,,,0.02,255,Wunderground v.1.15,2013-08-01 13:07:00,
2013-08-01 09:13:00,81.4,77.5,30.01,South,173,5.0,12.0,88,0.00,,,0.02,318,Wunderground v.1.15,2013-08-01 13:13:00,
2013-08-01 09:18:00,81.6,77.4,30.01,South,182,4.0,12.0,87,0.00,,,0.02,267,Wunderground v.1.15,2013-08-01 13:18:00,
2013-08-01 09:24:00,81.8,77.5,30.01,South,182,4.0,12.0,87,0.00,,,0.02,301,Wunderground v.1.15,2013-08-01 13:24:00,
2013-08-01 09:31:00,82.0,77.0,30.02,SSW,200,5.0,12.0,85,0.00,,,0.02,371,Wunderground v.1.15,2013-08-01 13:31:00,
2013-08-01 09:37:00,82.4,77.4,30.01,SSW,196,6.0,12.0,85,0.00,,,0.02,585,Wunderground v.1.15,2013-08-01 13:37:00,
2013-08-01 09:44:00,82.9,77.2,30.01,South,188,5.0,12.0,83,0.00,,,0.02,304,Wunderground v.1.15,2013-08-01 13:44:00,
2013-08-01 09:50:00,83.1,77.0,30.01,South,190,6.0,12.0,82,0.00,,,0.02,288,Wunderground v.1.15,2013-08-01 13:50:00,
2013-08-01 09:55:00,83.2,76.4,30.01,South,190,5.0,12.0,80,0.00,,,0.02,316,Wunderground v.1.15,2013-08-01 13:55:00,
2013-08-01 10:01:00,83.5,76.7,30.01,SSW,197,6.0,12.0,80,0.00,,,0.02,788,Wunderground v.1.15,2013-08-01 14:01:00,
2013-08-01 10:06:00,84.0,77.2,30.01,SSW,192,6.0,12.0,80,0.00,,,0.02,793,Wunderground v.1.15,2013-08-01 14:06:00,
2013-08-01 10:11:00,84.3,76.7,30.01,SSW,194,7.0,12.0,78,0.00,,,0.02,828,Wunderground v.1.15,2013-08-01 14:11:00,
2013-08-01 10:17:00,84.5,77.3,30.01,South,186,8.0,12.0,79,0.00,,,0.02,617,Wunderground v.1.15,2013-08-01 14:17:00,
2013-08-01 10:22:00,84.6,77.4,30.01,SSW,209,7.0,12.0,79,0.00,,,0.02,854,Wunderground v.1.15,2013-08-01 14:22:00,
2013-08-01 10:28:00,85.1,77.8,30.01,SSW,209,5.0,12.0,79,0.00,,,0.02,962,Wunderground v.1.15,2013-08-01 14:28:00,
2013-08-01 10:33:00,85.2,76.8,30.02,South,187,5.0,12.0,76,0.00,,,0.02,1058,Wunderground v.1.15,2013-08-01 14:33:00,
2013-08-01 10:40:00,85.4,77.4,30.02,SSW,202,5.0,5.0,77,0.00,,,0.02,554,Wunderground v.1.15,2013-08-01 14:40:00,
2013-08-01 10:45:00,85.6,77.6,30.02,SSW,202,4.0,12.0,77,0.00,,,0.02,506,Wunderground v.1.15,2013-08-01 14:45:00,
2013-08-01 10:51:00,85.5,77.1,30.02,SSW,202,4.0,12.0,76,0.00,,,0.02,411,Wunderground v.1.15,2013-08-01 14:51:00,
2013-08-01 10:57:00,85.5,77.1,30.02,SW,225,5.0,12.0,76,0.00,,,0.02,381,Wunderground v.1.15,2013-08-01 14:57:00,
2013-08-01 11:03:00,85.5,77.5,30.02,SSW,196,6.0,12.0,77,0.00,,,0.02,320,Wunderground v.1.15,2013-08-01 15:03:00,
2013-08-01 11:08:00,85.2,76.4,30.02,SW,214,6.0,12.0,75,0.00,,,0.02,315,Wunderground v.1.15,2013-08-01 15:08:00,
2013-08-01 11:14:00,85.2,76.8,30.02,SSW,213,7.0,12.0,76,0.00,,,0.02,336,Wunderground v.1.15,2013-08-01 15:14:00,
2013-08-01 11:20:00,85.3,76.9,30.02,SW,214,6.0,6.0,76,0.00,,,0.02,357,Wunderground v.1.15,2013-08-01 15:20:00,
2013-08-01 11:26:00,85.4,77.8,30.02,SSW,201,4.0,12.0,78,0.00,,,0.02,362,Wunderground v.1.15,2013-08-01 15:26:00,
2013-08-01 11:33:00,85.1,76.7,30.02,SSW,196,5.0,12.0,76,0.00,,,0.02,346,Wunderground v.1.15,2013-08-01 15:33:00,
2013-08-01 11:38:00,85.0,77.0,30.01,South,188,5.0,12.0,77,0.00,,,0.02,362,Wunderground v.1.15,2013-08-01 15:38:00,
2013-08-01 11:45:00,85.0,77.0,30.01,SSW,200,5.0,12.0,77,0.00,,,0.02,376,Wunderground v.1.15,2013-08-01 15:45:00,
2013-08-01 11:50:00,85.0,77.4,30.01,SSW,207,5.0,12.0,78,0.00,,,0.02,369,Wunderground v.1.15,2013-08-01 15:50:00,
2013-08-01 11:55:00,85.1,77.8,30.02,SSW,213,6.0,12.0,79,0.00,,,0.02,359,Wunderground v.1.15,2013-08-01 15:55:00,
2013-08-01 12:01:00,85.3,77.3,30.01,SW,222,5.0,12.0,77,0.00,,,0.02,374,Wunderground v.1.15,2013-08-01 16:01:00,
2013-08-01 12:08:00,85.3,76.9,30.01,SW,215,4.0,12.0,76,0.00,,,0.02,378,Wunderground v.1.15,2013-08-01 16:08:00,
2013-08-01 12:13:00,85.2,76.8,30.01,SSW,211,4.0,12.0,76,0.00,,,0.02,396,Wunderground v.1.15,2013-08-01 16:13:00,
2013-08-01 12:18:00,85.1,76.7,30.01,SSW,201,4.0,12.0,76,0.00,,,0.02,403,Wunderground v.1.15,2013-08-01 16:18:00,
2013-08-01 12:26:00,85.3,76.9,30.01,SSW,201,4.0,12.0,76,0.00,,,0.02,448,Wunderground v.1.15,2013-08-01 16:26:00,
2013-08-01 12:31:00,85.5,78.2,30.00,SSW,206,5.0,12.0,79,0.00,,,0.02,457,Wunderground v.1.15,2013-08-01 16:31:00,
2013-08-01 12:40:00,85.4,77.4,30.00,South,190,6.0,6.0,77,0.00,,,0.02,441,Wunderground v.1.15,2013-08-01 16:40:00,
2013-08-01 12:45:00,85.5,77.9,30.00,SSW,200,5.0,12.0,78,0.00,,,0.02,473,Wunderground v.1.15,2013-08-01 16:45:00,
2013-08-01 12:51:00,85.4,77.0,30.00,South,183,5.0,12.0,76,0.00,,,0.02,543,Wunderground v.1.15,2013-08-01 16:51:00,
2013-08-01 12:56:00,85.5,77.1,30.00,South,186,6.0,12.0,76,0.00,,,0.02,610,Wunderground v.1.15,2013-08-01 16:56:00,
2013-08-01 13:01:00,85.6,77.2,29.99,SSW,202,6.0,12.0,76,0.00,,,0.02,628,Wunderground v.1.15,2013-08-01 17:01:00,
2013-08-01 13:08:00,85.9,77.1,30.00,SSW,196,6.0,12.0,75,0.00,,,0.02,830,Wunderground v.1.15,2013-08-01 17:08:00,
2013-08-01 13:13:00,86.1,77.2,29.99,SSW,206,6.0,12.0,75,0.00,,,0.02,763,Wunderground v.1.15,2013-08-01 17:13:00,
2013-08-01 13:18:00,86.5,77.2,29.99,SW,224,5.0,12.0,74,0.00,,,0.02,698,Wunderground v.1.15,2013-08-01 17:18:00,
2013-08-01 13:24:00,86.8,76.7,29.99,SW,219,4.0,12.0,72,0.00,,,0.02,744,Wunderground v.1.15,2013-08-01 17:24:00,
2013-08-01 13:29:00,87.2,77.1,29.99,SW,219,4.0,12.0,72,0.00,,,0.02,1160,Wunderground v.1.15,2013-08-01 17:29:00,
2013-08-01 13:38:00,87.4,76.0,29.98,SSW,199,6.0,12.0,69,0.00,,,0.02,1162,Wunderground v.1.15,2013-08-01 17:38:00,
2013-08-01 13:43:00,87.6,76.2,29.98,SSW,196,6.0,12.0,69,0.00,,,0.02,1146,Wunderground v.1.15,2013-08-01 17:43:00,
2013-08-01 13:49:00,87.7,77.1,29.98,SSW,199,6.0,12.0,71,0.00,,,0.02,1151,Wunderground v.1.15,2013-08-01 17:49:00,
2013-08-01 13:55:00,88.1,77.1,29.98,SW,223,5.0,12.0,70,0.00,,,0.02,1167,Wunderground v.1.15,2013-08-01 17:55:00,
2013-08-01 14:02:00,88.6,78.0,29.97,SW,221,6.0,12.0,71,0.00,,,0.02,1065,Wunderground v.1.15,2013-08-01 18:02:00,
2013-08-01 14:09:00,89.1,78.5,29.97,SW,230,5.0,12.0,71,0.00,,,0.02,1067,Wunderground v.1.15,2013-08-01 18:09:00,
2013-08-01 14:15:00,89.4,78.8,29.97,SW,231,6.0,12.0,71,0.00,,,0.02,1055,Wunderground v.1.15,2013-08-01 18:15:00,
2013-08-01 14:22:00,89.5,77.5,29.97,SSW,210,6.0,12.0,68,0.00,,,0.02,1035,Wunderground v.1.15,2013-08-01 18:22:00,
2013-08-01 14:28:00,89.5,77.5,29.96,SW,220,6.0,12.0,68,0.00,,,0.02,1023,Wunderground v.1.15,2013-08-01 18:28:00,
2013-08-01 14:34:00,89.7,77.7,29.96,SSW,213,6.0,12.0,68,0.00,,,0.02,1042,Wunderground v.1.15,2013-08-01 18:34:00,
2013-08-01 14:40:00,90.0,78.0,29.96,SSW,213,5.0,5.0,68,0.00,,,0.02,1007,Wunderground v.1.15,2013-08-01 18:40:00,
2013-08-01 14:45:00,89.6,77.2,29.96,SSW,207,4.0,12.0,67,0.00,,,0.02,1034,Wunderground v.1.15,2013-08-01 18:45:00,
2013-08-01 14:52:00,89.7,78.2,29.96,South,186,5.0,12.0,69,0.00,,,0.02,1041,Wunderground v.1.15,2013-08-01 18:52:00,
2013-08-01 14:57:00,89.2,77.7,29.95,South,186,5.0,12.0,69,0.00,,,0.02,1063,Wunderground v.1.15,2013-08-01 18:57:00,
2013-08-01 15:03:00,89.5,77.5,29.96,South,186,2.0,12.0,68,0.00,,,0.02,1055,Wunderground v.1.15,2013-08-01 19:03:00,
2013-08-01 15:09:00,90.4,77.0,29.95,SSW,192,1.0,12.0,65,0.00,,,0.02,1062,Wunderground v.1.15,2013-08-01 19:09:00,
2013-08-01 15:14:00,90.4,76.6,29.95,SSW,192,2.0,12.0,64,0.00,,,0.02,257,Wunderground v.1.15,2013-08-01 19:14:00,
2013-08-01 15:20:00,90.2,78.2,29.95,SSW,204,4.0,12.0,68,0.00,,,0.02,1113,Wunderground v.1.15,2013-08-01 19:20:00,
2013-08-01 15:26:00,89.9,76.6,29.95,SSW,203,5.0,12.0,65,0.00,,,0.02,1088,Wunderground v.1.15,2013-08-01 19:26:00,
2013-08-01 15:31:00,89.5,76.2,29.95,SSW,201,4.0,12.0,65,0.00,,,0.02,378,Wunderground v.1.15,2013-08-01 19:31:00,
2013-08-01 15:38:00,89.7,78.2,29.95,SSW,196,3.0,12.0,69,0.00,,,0.02,510,Wunderground v.1.15,2013-08-01 19:38:00,
2013-08-01 15:44:00,89.5,78.4,29.94,SSW,196,4.0,12.0,70,0.00,,,0.02,420,Wunderground v.1.15,2013-08-01 19:44:00,
2013-08-01 15:50:00,89.5,76.6,29.94,SSW,196,4.0,12.0,66,0.00,,,0.02,1172,Wunderground v.1.15,2013-08-01 19:50:00,
2013-08-01 15:55:00,89.8,77.4,29.94,SSW,196,3.0,12.0,67,0.00,,,0.02,1002,Wunderground v.1.15,2013-08-01 19:55:00,
2013-08-01 16:02:00,90.1,76.3,29.94,SSW,192,4.0,12.0,64,0.00,,,0.02,863,Wunderground v.1.15,2013-08-01 20:02:00,
2013-08-01 16:07:00,90.8,77.4,29.94,South,179,2.0,12.0,65,0.00,,,0.02,1172,Wunderground v.1.15,2013-08-01 20:07:00,
2013-08-01 16:13:00,91.9,76.5,29.94,South,179,0.0,12.0,61,0.00,,,0.02,519,Wunderground v.1.15,2013-08-01 20:13:00,
2013-08-01 16:20:00,91.8,72.2,29.94,SW,215,2.0,12.0,53,0.00,,,0.02,336,Wunderground v.1.15,2013-08-01 20:20:00,
2013-08-01 16:26:00,91.5,73.6,29.94,SW,215,5.0,12.0,56,0.00,,,0.02,448,Wunderground v.1.15,2013-08-01 20:26:00,
2013-08-01 16:33:00,91.0,74.7,29.95,SSE,168,6.0,12.0,59,0.00,,,0.02,271,Wunderground v.1.15,2013-08-01 20:33:00,
2013-08-01 16:39:00,88.3,75.0,29.96,SE,142,13.0,21.0,65,0.00,,,0.02,229,Wunderground v.1.15,2013-08-01 20:39:00,
2013-08-01 16:42:00,86.6,75.2,29.97,SE,128,16.0,23.0,69,0.00,,,0.02,260,Wunderground v.1.15,2013-08-01 20:42:00,
2013-08-01 16:48:00,84.6,75.0,29.96,ESE,119,16.0,23.0,73,0.00,,,0.02,271,Wunderground v.1.15,2013-08-01 20:48:00,
2013-08-01 16:53:00,83.4,74.2,29.96,ESE,110,14.0,17.0,74,0.00,,,0.02,186,Wunderground v.1.15,2013-08-01 20:53:00,
2013-08-01 16:59:00,82.0,73.7,29.95,SE,138,14.0,18.0,76,0.00,,,0.02,105,Wunderground v.1.15,2013-08-01 20:59:00,
2013-08-01 17:04:00,81.4,73.5,29.96,SE,133,12.0,15.0,77,0.00,,,0.02,77,Wunderground v.1.15,2013-08-01 21:04:00,
2013-08-01 17:09:00,81.2,73.3,29.97,ESE,109,8.0,15.0,77,0.00,,,0.02,58,Wunderground v.1.15,2013-08-01 21:09:00,
2013-08-01 17:15:00,81.1,72.8,29.96,ESE,117,6.0,12.0,76,0.00,,,0.02,51,Wunderground v.1.15,2013-08-01 21:15:00,
2013-08-01 17:20:00,81.1,73.2,29.96,SE,133,5.0,5.0,77,0.00,,,0.02,49,Wunderground v.1.15,2013-08-01 21:20:00,
2013-08-01 17:27:00,80.9,74.5,29.95,SE,128,3.0,12.0,81,0.00,,,0.03,51,Wunderground v.1.15,2013-08-01 21:27:00,
2013-08-01 17:32:00,80.6,75.0,29.95,ESE,122,2.0,12.0,83,0.00,,,0.03,53,Wunderground v.1.15,2013-08-01 21:32:00,
2013-08-01 17:38:00,80.5,75.6,29.95,ESE,122,1.0,12.0,85,0.00,,,0.03,51,Wunderground v.1.15,2013-08-01 21:38:00,
2013-08-01 17:43:00,80.2,74.9,29.95,ESE,121,1.0,12.0,84,0.00,,,0.03,49,Wunderground v.1.15,2013-08-01 21:43:00,
2013-08-01 17:49:00,80.2,75.3,29.96,ESE,121,1.0,12.0,85,0.00,,,0.03,44,Wunderground v.1.15,2013-08-01 21:49:00,
2013-08-01 17:54:00,79.9,74.6,29.96,ESE,117,2.0,12.0,84,0.00,,,0.03,42,Wunderground v.1.15,2013-08-01 21:54:00,
2013-08-01 17:55:00,79.8,74.5,29.96,ESE,117,2.0,12.0,84,0.00,,,0.04,42,Wunderground v.1.15,2013-08-01 21:55:00,
2013-08-01 18:00:00,79.7,74.8,29.96,ESE,115,3.0,3.0,85,0.00,,,0.04,42,Wunderground v.1.15,2013-08-01 22:00:00,
2013-08-01 18:07:00,79.5,74.9,29.96,ESE,113,2.0,12.0,86,0.00,,,0.04,39,Wunderground v.1.15,2013-08-01 22:07:00,
2013-08-01 18:12:00,79.3,74.7,29.97,ESE,113,2.0,12.0,86,0.04,,,0.05,39,Wunderground v.1.15,2013-08-01 22:12:00,
2013-08-01 18:18:00,79.2,75.0,29.97,East,96,3.0,12.0,87,0.04,,,0.05,39,Wunderground v.1.15,2013-08-01 22:18:00,
2013-08-01 18:23:00,78.9,75.0,29.98,ENE,71,4.0,12.0,88,0.06,,,0.06,35,Wunderground v.1.15,2013-08-01 22:23:00,
2013-08-01 18:29:00,78.6,74.7,29.98,East,79,6.0,12.0,88,0.07,,,0.07,33,Wunderground v.1.15,2013-08-01 22:29:00,
2013-08-01 18:36:00,78.2,74.4,29.98,East,82,5.0,12.0,88,0.07,,,0.07,30,Wunderground v.1.15,2013-08-01 22:36:00,
2013-08-01 18:41:00,77.9,74.4,29.98,East,98,5.0,6.0,89,0.04,,,0.07,32,Wunderground v.1.15,2013-08-01 22:41:00,
2013-08-01 18:47:00,77.7,74.2,29.98,East,89,4.0,12.0,89,0.04,,,0.08,32,Wunderground v.1.15,2013-08-01 22:47:00,
2013-08-01 18:52:00,77.6,74.4,29.98,East,88,4.0,12.0,90,0.06,,,0.09,32,Wunderground v.1.15,2013-08-01 22:52:00,
2013-08-01 18:58:00,77.5,74.3,29.98,East,88,2.0,12.0,90,0.06,,,0.09,33,Wunderground v.1.15,2013-08-01 22:58:00,
2013-08-01 19:03:00,77.4,74.2,29.98,East,81,3.0,12.0,90,0.06,,,0.10,39,Wunderground v.1.15,2013-08-01 23:03:00,
2013-08-01 19:08:00,77.6,74.8,29.98,North,9,3.0,12.0,91,0.06,,,0.10,44,Wunderground v.1.15,2013-08-01 23:08:00,
2013-08-01 19:14:00,77.5,74.7,29.98,North,9,1.0,12.0,91,0.08,,,0.11,51,Wunderground v.1.15,2013-08-01 23:14:00,
2013-08-01 19:19:00,77.4,74.6,29.98,North,9,1.0,12.0,91,0.06,,,0.11,51,Wunderground v.1.15,2013-08-01 23:19:00,
2013-08-01 19:24:00,77.5,74.7,29.97,North,9,1.0,12.0,91,0.04,,,0.11,44,Wunderground v.1.15,2013-08-01 23:24:00,
2013-08-01 19:31:00,77.5,74.7,29.97,North,9,0.0,12.0,91,0.00,,,0.11,35,Wunderground v.1.15,2013-08-01 23:31:00,
2013-08-01 19:36:00,77.5,74.7,29.97,North,9,0.0,12.0,91,0.00,,,0.11,30,Wunderground v.1.15,2013-08-01 23:36:00,
2013-08-01 19:41:00,77.5,75.0,29.98,North,9,0.0,12.0,92,0.00,,,0.11,23,Wunderground v.1.15,2013-08-01 23:41:00,
2013-08-01 19:48:00,77.5,75.3,29.98,North,9,0.0,12.0,93,0.00,,,0.11,18,Wunderground v.1.15,2013-08-01 23:48:00,
2013-08-01 19:53:00,77.5,75.3,29.98,North,10,0.0,12.0,93,0.00,,,0.11,14,Wunderground v.1.15,2013-08-01 23:53:00,
2013-08-01 19:58:00,77.4,75.2,29.98,North,10,0.0,12.0,93,0.00,,,0.11,11,Wunderground v.1.15,2013-08-01 23:58:00,
2013-08-01 20:03:00,77.2,74.7,29.99,North,10,0.0,12.0,92,0.00,,,0.11,7,Wunderground v.1.15,2013-08-02 00:03:00,
2013-08-01 20:09:00,77.0,74.8,29.99,North,10,0.0,12.0,93,0.00,,,0.11,0,Wunderground v.1.15,2013-08-02 00:09:00,
2013-08-01 20:15:00,77.0,74.8,29.98,North,10,1.0,12.0,93,0.00,,,0.11,0,Wunderground v.1.15,2013-08-02 00:15:00,
2013-08-01 20:25:00,76.9,74.7,29.98,North,10,0.0,12.0,93,0.00,,,0.11,0,Wunderground v.1.15,2013-08-02 00:25:00,
2013-08-01 20:30:00,76.9,74.7,29.99,North,11,0.0,12.0,93,0.00,,,0.11,0,Wunderground v.1.15,2013-08-02 00:30:00,
2013-08-01 20:37:00,76.8,74.6,29.98,North,11,0.0,12.0,93,0.00,,,0.11,0,Wunderground v.1.15,2013-08-02 00:37:00,
2013-08-01 20:43:00,76.7,74.8,29.98,North,11,0.0,12.0,94,0.00,,,0.11,0,Wunderground v.1.15,2013-08-02 00:43:00,
2013-08-01 20:48:00,76.7,74.8,29.98,North,11,0.0,12.0,94,0.00,,,0.11,0,Wunderground v.1.15,2013-08-02 00:48:00,
2013-08-01 20:55:00,76.7,74.8,29.98,North,11,0.0,12.0,94,0.00,,,0.11,0,Wunderground v.1.15,2013-08-02 00:55:00,
2013-08-01 21:01:00,76.7,74.8,29.97,North,11,0.0,12.0,94,0.00,,,0.11,0,Wunderground v.1.15,2013-08-02 01:01:00,
2013-08-01 21:06:00,76.7,74.8,29.97,North,11,1.0,12.0,94,0.00,,,0.11,0,Wunderground v.1.15,2013-08-02 01:06:00,
2013-08-01 21:11:00,76.7,74.8,29.97,North,11,1.0,12.0,94,0.00,,,0.11,0,Wunderground v.1.15,2013-08-02 01:11:00,
2013-08-01 21:16:00,76.7,74.8,29.97,North,11,0.0,12.0,94,0.00,,,0.11,0,Wunderground v.1.15,2013-08-02 01:16:00,
2013-08-01 21:22:00,76.7,74.8,29.97,North,11,0.0,12.0,94,0.00,,,0.11,0,Wunderground v.1.15,2013-08-02 01:22:00,
2013-08-01 21:27:00,76.8,74.9,29.97,North,11,0.0,12.0,94,0.00,,,0.11,0,Wunderground v.1.15,2013-08-02 01:27:00,
2013-08-01 21:32:00,76.9,75.0,29.98,North,10,0.0,12.0,94,0.00,,,0.11,0,Wunderground v.1.15,2013-08-02 01:32:00,
2013-08-01 21:38:00,76.9,75.0,29.98,North,10,0.0,12.0,94,0.00,,,0.11,0,Wunderground v.1.15,2013-08-02 01:38:00,
2013-08-01 21:43:00,76.9,75.0,29.98,North,10,0.0,12.0,94,0.00,,,0.11,0,Wunderground v.1.15,2013-08-02 01:43:00,
2013-08-01 21:49:00,76.7,74.8,29.97,North,10,0.0,12.0,94,0.00,,,0.11,0,Wunderground v.1.15,2013-08-02 01:49:00,
2013-08-01 21:54:00,76.6,74.7,29.97,North,10,0.0,12.0,94,0.00,,,0.11,0,Wunderground v.1.15,2013-08-02 01:54:00,
2013-08-01 21:59:00,76.5,74.6,29.97,North,10,0.0,12.0,94,0.00,,,0.11,0,Wunderground v.1.15,2013-08-02 01:59:00,
2013-08-01 22:05:00,76.5,74.6,29.98,North,10,0.0,12.0,94,0.00,,,0.11,0,Wunderground v.1.15,2013-08-02 02:05:00,
2013-08-01 22:10:00,76.5,75.0,29.97,North,10,0.0,12.0,95,0.00,,,0.11,0,Wunderground v.1.15,2013-08-02 02:10:00,
2013-08-01 22:17:00,76.5,75.0,29.98,North,10,0.0,12.0,95,0.00,,,0.11,0,Wunderground v.1.15,2013-08-02 02:17:00,
2013-08-01 22:22:00,76.5,75.0,29.98,North,10,0.0,12.0,95,0.00,,,0.11,0,Wunderground v.1.15,2013-08-02 02:22:00,
2013-08-01 22:29:00,76.5,75.0,29.98,North,10,0.0,12.0,95,0.00,,,0.11,0,Wunderground v.1.15,2013-08-02 02:29:00,
2013-08-01 22:34:00,76.5,75.0,29.98,North,10,0.0,12.0,95,0.00,,,0.11,0,Wunderground v.1.15,2013-08-02 02:34:00,
2013-08-01 22:39:00,76.4,74.9,29.98,North,10,0.0,12.0,95,0.00,,,0.11,0,Wunderground v.1.15,2013-08-02 02:39:00,
2013-08-01 22:45:00,76.4,74.9,29.98,North,9,0.0,12.0,95,0.00,,,0.11,0,Wunderground v.1.15,2013-08-02 02:45:00,
2013-08-01 22:50:00,76.4,74.9,29.98,North,9,0.0,12.0,95,0.00,,,0.11,0,Wunderground v.1.15,2013-08-02 02:50:00,
2013-08-01 22:56:00,76.2,74.7,29.98,North,9,0.0,12.0,95,0.00,,,0.11,0,Wunderground v.1.15,2013-08-02 02:56:00,
2013-08-01 23:02:00,76.2,74.7,29.98,North,9,0.0,12.0,95,0.00,,,0.11,0,Wunderground v.1.15,2013-08-02 03:02:00,
2013-08-01 23:07:00,76.1,74.6,29.98,North,9,0.0,12.0,95,0.00,,,0.11,0,Wunderground v.1.15,2013-08-02 03:07:00,
2013-08-01 23:12:00,76.4,75.2,29.98,North,9,0.0,12.0,96,0.00,,,0.11,0,Wunderground v.1.15,2013-08-02 03:12:00,
2013-08-01 23:17:00,76.5,75.0,29.98,North,9,0.0,12.0,95,0.00,,,0.11,0,Wunderground v.1.15,2013-08-02 03:17:00,
2013-08-01 23:23:00,76.5,75.0,29.98,North,9,0.0,12.0,95,0.00,,,0.11,0,Wunderground v.1.15,2013-08-02 03:23:00,
2013-08-01 23:30:00,76.5,75.0,29.98,North,9,0.0,12.0,95,0.00,,,0.11,0,Wunderground v.1.15,2013-08-02 03:30:00,
2013-08-01 23:37:00,76.5,75.0,29.98,North,9,0.0,12.0,95,0.00,,,0.11,0,Wunderground v.1.15,2013-08-02 03:37:00,
2013-08-01 23:42:00,76.5,75.0,29.98,North,9,0.0,12.0,95,0.00,,,0.11,0,Wunderground v.1.15,2013-08-02 03:42:00,
2013-08-01 23:48:00,76.5,75.0,29.98,North,9,0.0,12.0,95,0.00,,,0.11,0,Wunderground v.1.15,2013-08-02 03:48:00,
2013-08-01 23:54:00,76.5,75.0,29.98,North,9,0.0,12.0,95,0.00,,,0.11,0,Wunderground v.1.15,2013-08-02 03:54:00,
2013-08-01 23:59:00,76.4,74.9,29.98,North,9,0.0,12.0,95,0.00,,,0.11,0,Wunderground v.1.15,2013-08-02 03:59:00,